createdAt,value
2023-05-17T00:03:00.555Z,2.07
2023-05-17T00:06:03.516Z,2.10
2023-05-17T00:09:06.430Z,2.00
2023-05-17T00:12:10.942Z,1.70
2023-05-17T00:15:14.721Z,1.57
2023-05-17T00:18:17.794Z,1.77
2023-05-17T00:21:20.666Z,2.40
2023-05-17T00:24:23.516Z,1.97
2023-05-17T00:27:27.680Z,1.57
2023-05-17T00:30:30.557Z,2.10
2023-05-17T00:33:33.416Z,2.40
2023-05-17T00:36:36.264Z,2.10
2023-05-17T00:39:39.084Z,2.00
2023-05-17T00:42:43.329Z,2.23
2023-05-17T00:45:48.444Z,1.67
2023-05-17T00:48:51.424Z,2.57
2023-05-17T00:51:55.251Z,1.87
2023-05-17T00:54:58.170Z,2.30
2023-05-17T00:58:02.514Z,1.83
2023-05-17T01:01:05.621Z,1.90
2023-05-17T01:04:08.895Z,2.20
2023-05-17T01:07:12.087Z,2.17
2023-05-17T01:10:14.920Z,2.10
2023-05-17T01:13:26.676Z,2.37
2023-05-17T01:16:34.904Z,1.90
2023-05-17T01:19:51.603Z,2.10
2023-05-17T01:23:08.257Z,2.33
2023-05-17T01:26:17.487Z,1.63
2023-05-17T01:29:25.749Z,1.70
2023-05-17T01:32:29.915Z,2.17
2023-05-17T01:35:32.826Z,2.67
2023-05-17T01:38:35.644Z,2.20
2023-05-17T01:41:42.237Z,2.70
2023-05-17T01:44:51.692Z,2.33
2023-05-17T01:48:05.811Z,2.73
2023-05-17T01:51:12.962Z,2.53
2023-05-17T01:54:21.430Z,2.67
2023-05-17T01:57:30.630Z,2.60
2023-05-17T02:00:35.475Z,2.73
2023-05-17T02:03:38.373Z,2.77
2023-05-17T02:06:41.204Z,2.47
2023-05-17T02:09:44.029Z,2.43
2023-05-17T02:12:46.856Z,2.43
2023-05-17T02:15:51.039Z,3.27
2023-05-17T02:18:53.944Z,2.73
2023-05-17T02:21:56.808Z,3.13
2023-05-17T02:24:59.658Z,2.63
2023-05-17T02:28:02.482Z,2.77
2023-05-17T02:31:09.097Z,3.43
2023-05-17T02:34:11.890Z,2.23
2023-05-17T02:37:14.699Z,2.80
2023-05-17T02:40:17.733Z,2.60
2023-05-17T02:43:20.577Z,1.67
2023-05-17T02:46:24.709Z,2.87
2023-05-17T02:49:27.509Z,2.17
2023-05-17T02:52:30.340Z,1.93
2023-05-17T02:55:33.166Z,2.00
2023-05-17T02:58:36.069Z,1.93
2023-05-17T03:01:40.270Z,2.60
2023-05-17T03:04:43.200Z,2.10
2023-05-17T03:07:46.096Z,2.30
2023-05-17T03:10:48.976Z,2.10
2023-05-17T03:13:52.149Z,1.77
2023-05-17T03:16:56.307Z,2.37
2023-05-17T03:19:59.131Z,1.67
2023-05-17T03:23:01.996Z,1.70
2023-05-17T03:26:04.869Z,1.50
2023-05-17T03:29:07.707Z,1.50
2023-05-17T03:32:11.949Z,2.13
2023-05-17T03:35:14.780Z,1.83
2023-05-17T03:38:17.810Z,1.90
2023-05-17T03:41:21.781Z,1.80
2023-05-17T03:44:24.633Z,1.87
2023-05-17T03:47:29.093Z,1.40
2023-05-17T03:50:32.719Z,1.83
2023-05-17T03:53:40.948Z,2.20
2023-05-17T03:56:46.999Z,2.03
2023-05-17T03:59:50.039Z,1.30
2023-05-17T04:02:54.270Z,1.73
2023-05-17T04:06:06.782Z,1.30
2023-05-17T04:09:10.896Z,1.93
2023-05-17T04:12:13.766Z,2.27
2023-05-17T04:15:16.681Z,1.67
2023-05-17T04:18:21.018Z,2.17
2023-05-17T04:21:23.966Z,1.93
2023-05-17T04:24:26.794Z,1.40
2023-05-17T04:27:29.617Z,1.80
2023-05-17T04:30:32.527Z,1.77
2023-05-17T04:33:37.174Z,1.27
2023-05-17T04:36:40.048Z,1.63
2023-05-17T04:39:42.881Z,1.83
2023-05-17T04:42:45.721Z,1.63
2023-05-17T04:45:49.458Z,1.80
2023-05-17T04:48:53.773Z,1.50
2023-05-17T04:51:56.698Z,1.53
2023-05-17T04:54:59.717Z,1.63
2023-05-17T04:58:02.539Z,1.33
2023-05-17T05:01:06.765Z,1.63
2023-05-17T05:04:11.036Z,1.30
2023-05-17T05:07:13.994Z,2.23
2023-05-17T05:10:17.025Z,1.63
2023-05-17T05:13:19.856Z,1.43
2023-05-17T05:16:22.680Z,1.30
2023-05-17T05:19:26.911Z,1.60
2023-05-17T05:22:29.765Z,1.60
2023-05-17T05:25:32.601Z,1.53
2023-05-17T05:28:35.426Z,1.83
2023-05-17T05:31:38.257Z,1.60
2023-05-17T05:34:42.401Z,1.50
2023-05-17T05:37:46.028Z,1.03
2023-05-17T05:40:49.072Z,1.43
2023-05-17T05:43:51.951Z,1.10
2023-05-17T05:46:54.795Z,1.10
2023-05-17T05:49:59.106Z,1.37
2023-05-17T05:53:10.880Z,1.30
2023-05-17T05:56:17.873Z,1.53
2023-05-17T05:59:20.743Z,2.10
2023-05-17T06:02:24.734Z,1.60
2023-05-17T06:05:28.961Z,1.57
2023-05-17T06:08:31.809Z,1.33
2023-05-17T06:11:34.719Z,1.37
2023-05-17T06:14:38.532Z,0.90
2023-05-17T06:17:41.767Z,1.33
2023-05-17T06:20:46.535Z,1.10
2023-05-17T06:23:49.721Z,1.20
2023-05-17T06:26:52.548Z,1.10
2023-05-17T06:29:55.367Z,1.10
2023-05-17T06:32:58.541Z,1.17
2023-05-17T06:39:11.099Z,1.20
2023-05-17T06:42:13.929Z,1.63
2023-05-17T06:45:16.785Z,1.53
2023-05-17T06:48:19.725Z,2.17
2023-05-17T06:51:24.388Z,1.53
2023-05-17T06:54:27.246Z,1.73
2023-05-17T06:57:30.118Z,1.20
2023-05-17T07:00:33.335Z,1.10
2023-05-17T07:03:36.524Z,1.20
2023-05-17T07:06:41.045Z,1.10
2023-05-17T07:09:44.238Z,1.53
2023-05-17T07:12:47.053Z,1.53
2023-05-17T07:15:49.916Z,1.27
2023-05-17T07:18:52.848Z,1.20
2023-05-17T07:21:57.265Z,1.03
2023-05-17T07:25:00.171Z,1.67
2023-05-17T07:28:03.091Z,0.83
2023-05-17T07:31:05.941Z,1.40
2023-05-17T07:34:08.842Z,1.30
2023-05-17T07:37:13.162Z,1.37
2023-05-17T07:40:16.458Z,1.43
2023-05-17T07:43:19.697Z,1.40
2023-05-17T07:46:22.919Z,1.20
2023-05-17T07:49:26.330Z,0.87
2023-05-17T07:52:38.355Z,1.33
2023-05-17T07:55:42.117Z,1.30
2023-05-17T07:58:45.680Z,1.10
2023-05-17T08:01:49.483Z,1.27
2023-05-17T08:04:52.824Z,1.70
2023-05-17T08:08:00.127Z,1.30
2023-05-17T08:11:03.388Z,0.97
2023-05-17T08:14:06.635Z,1.30
2023-05-17T08:17:09.884Z,1.30
2023-05-17T08:20:13.394Z,1.60
2023-05-17T08:23:18.011Z,1.23
2023-05-17T08:26:21.464Z,1.33
2023-05-17T08:29:24.681Z,1.60
2023-05-17T08:32:28.394Z,0.90
2023-05-17T08:35:32.569Z,1.23
2023-05-17T08:38:37.364Z,1.03
2023-05-17T08:41:40.917Z,0.97
2023-05-17T08:44:44.178Z,0.97
2023-05-17T08:47:49.133Z,1.53
2023-05-17T08:50:52.867Z,1.47
2023-05-17T08:53:58.045Z,1.03
2023-05-17T08:57:02.446Z,1.07
2023-05-17T09:00:12.614Z,1.00
2023-05-17T09:03:17.507Z,1.17
2023-05-17T09:06:22.692Z,1.10
2023-05-17T09:09:27.720Z,1.40
2023-05-17T09:12:34.618Z,1.10
2023-05-17T09:15:37.948Z,0.87
2023-05-17T09:18:41.167Z,1.40
2023-05-17T09:21:47.743Z,0.80
2023-05-17T09:24:51.987Z,2.03
2023-05-17T09:27:55.272Z,1.17
2023-05-17T09:30:58.573Z,0.83
2023-05-17T09:34:02.385Z,0.90
2023-05-17T09:37:05.778Z,0.80
2023-05-17T09:40:11.917Z,1.00
2023-05-17T09:43:15.861Z,1.10
2023-05-17T09:46:21.661Z,1.00
2023-05-17T09:49:29.614Z,1.43
2023-05-17T09:52:35.199Z,0.80
2023-05-17T09:55:39.797Z,0.97
2023-05-17T09:58:44.390Z,1.07
2023-05-17T10:01:47.624Z,0.77
2023-05-17T10:04:52.176Z,0.80
2023-05-17T10:07:56.648Z,1.00
2023-05-17T10:11:03.376Z,0.93
2023-05-17T10:14:09.729Z,0.93
2023-05-17T10:17:14.113Z,0.60
2023-05-17T10:20:18.480Z,0.90
2023-05-17T10:23:22.881Z,1.10
2023-05-17T10:26:27.445Z,1.10
2023-05-17T10:29:31.426Z,1.00
2023-05-17T10:32:35.360Z,0.70
2023-05-17T10:35:41.120Z,0.70
2023-05-17T10:38:44.486Z,1.20
2023-05-17T10:41:50.713Z,0.93
2023-05-17T10:44:55.692Z,1.10
2023-05-17T10:48:00.446Z,0.73
2023-05-17T10:51:09.724Z,1.10
2023-05-17T10:54:14.013Z,0.90
2023-05-17T10:57:23.413Z,1.23
2023-05-17T11:00:30.535Z,1.00
2023-05-17T11:03:36.613Z,1.00
2023-05-17T11:06:42.339Z,1.30
2023-05-17T11:09:45.656Z,1.50
2023-05-17T11:12:55.343Z,1.27
2023-05-17T11:16:05.665Z,1.57
2023-05-17T11:19:10.276Z,0.90
2023-05-17T11:22:14.059Z,1.03
2023-05-17T11:25:17.888Z,1.50
2023-05-17T11:28:23.021Z,1.00
2023-05-17T11:31:31.767Z,1.30
2023-05-17T11:34:35.275Z,1.50
2023-05-17T11:37:38.517Z,1.33
2023-05-17T11:40:42.135Z,1.30
2023-05-17T11:43:48.977Z,1.40
2023-05-17T11:46:52.296Z,1.20
2023-05-17T11:49:56.636Z,1.30
2023-05-17T11:53:00.176Z,1.50
2023-05-17T11:56:05.311Z,1.20
2023-05-17T11:59:10.131Z,1.17
2023-05-17T12:02:27.492Z,1.00
2023-05-17T12:05:30.785Z,1.47
2023-05-17T12:08:34.989Z,1.60
2023-05-17T12:11:39.500Z,1.73
2023-05-17T12:14:47.834Z,1.67
2023-05-17T12:17:51.939Z,1.30
2023-05-17T12:20:56.135Z,1.93
2023-05-17T12:23:59.394Z,1.73
2023-05-17T12:27:02.597Z,1.97
2023-05-17T12:30:17.335Z,1.90
2023-05-17T12:33:20.911Z,1.60
2023-05-17T12:36:24.362Z,1.53
2023-05-17T12:39:27.617Z,1.53
2023-05-17T12:42:30.937Z,1.57
2023-05-17T12:45:35.540Z,1.87
2023-05-17T12:48:39.234Z,1.70
2023-05-17T12:51:43.645Z,1.77
2023-05-17T12:54:47.395Z,1.80
2023-05-17T12:57:51.181Z,1.83
2023-05-17T13:01:02.635Z,1.27
2023-05-17T13:04:06.124Z,1.70
2023-05-17T13:07:09.764Z,1.97
2023-05-17T13:10:23.145Z,1.60
2023-05-17T13:13:26.396Z,1.20
2023-05-17T13:16:31.712Z,1.70
2023-05-17T13:19:36.024Z,1.60
2023-05-17T13:22:42.496Z,1.87
2023-05-17T13:25:45.766Z,1.80
2023-05-17T13:28:51.190Z,2.07
2023-05-17T13:31:55.893Z,2.47
2023-05-17T13:34:59.435Z,2.77
2023-05-17T13:38:02.685Z,1.90
2023-05-17T13:41:09.017Z,1.90
2023-05-17T13:44:12.460Z,1.73
2023-05-17T13:47:19.656Z,2.03
2023-05-17T13:50:23.998Z,1.60
2023-05-17T13:53:27.336Z,1.70
2023-05-17T13:56:30.613Z,1.90
2023-05-17T13:59:33.838Z,1.80
2023-05-17T14:02:38.525Z,1.53
2023-05-17T14:05:42.044Z,2.13
2023-05-17T14:08:46.329Z,2.03
2023-05-17T14:11:49.561Z,2.20
2023-05-17T14:14:52.891Z,1.43
2023-05-17T14:17:57.582Z,2.27
2023-05-17T14:21:01.088Z,2.33
2023-05-17T14:24:04.415Z,2.20
2023-05-17T14:27:07.710Z,2.00
2023-05-17T14:30:13.522Z,1.90
2023-05-17T14:33:18.436Z,2.00
2023-05-17T14:36:21.813Z,2.10
2023-05-17T14:39:25.251Z,2.57
2023-05-17T14:42:28.593Z,1.70
2023-05-17T14:45:31.882Z,2.27
2023-05-17T14:48:36.992Z,2.07
2023-05-17T14:51:40.317Z,1.97
2023-05-17T14:54:43.618Z,2.13
2023-05-17T14:57:46.831Z,2.30
2023-05-17T15:00:56.294Z,2.10
2023-05-17T15:04:03.524Z,2.40
2023-05-17T15:07:06.997Z,2.27
2023-05-17T15:10:12.926Z,1.70
2023-05-17T15:13:16.230Z,1.77
2023-05-17T15:16:19.696Z,2.43
2023-05-17T15:19:24.490Z,2.17
2023-05-17T15:22:27.808Z,2.43
2023-05-17T15:25:31.472Z,2.20
2023-05-17T15:28:34.801Z,2.63
2023-05-17T15:31:38.022Z,2.30
2023-05-17T15:34:42.559Z,2.00
2023-05-17T15:37:45.849Z,1.80
2023-05-17T15:40:49.086Z,2.03
2023-05-17T15:43:52.323Z,2.10
2023-05-17T15:46:55.549Z,2.67
2023-05-17T15:50:00.230Z,2.87
2023-05-17T15:53:03.443Z,2.23
2023-05-17T15:56:06.899Z,2.83
2023-05-17T15:59:10.114Z,2.33
2023-05-17T16:02:13.432Z,2.10
2023-05-17T16:05:17.998Z,2.07
2023-05-17T16:08:21.312Z,2.50
2023-05-17T16:11:24.796Z,2.40
2023-05-17T16:14:28.021Z,2.40
2023-05-17T16:17:31.420Z,3.80
2023-05-17T16:20:36.097Z,2.90
2023-05-17T16:23:39.318Z,3.23
2023-05-17T16:26:42.821Z,2.83
2023-05-17T16:29:46.266Z,3.30
2023-05-17T16:32:49.865Z,4.60
2023-05-17T16:35:54.449Z,3.40
2023-05-17T16:38:57.667Z,3.83
2023-05-17T16:42:00.889Z,4.13
2023-05-17T16:45:05.933Z,3.53
2023-05-17T16:48:10.378Z,3.80
2023-05-17T16:51:14.955Z,3.70
2023-05-17T16:54:18.162Z,3.50
2023-05-17T16:57:21.372Z,3.83
2023-05-17T17:00:24.671Z,3.80
2023-05-17T17:03:27.995Z,2.87
2023-05-17T17:06:33.796Z,2.87
2023-05-17T17:09:37.048Z,3.30
2023-05-17T17:12:40.541Z,3.30
2023-05-17T17:15:43.778Z,2.83
2023-05-17T17:18:47.597Z,3.10
2023-05-17T17:21:51.774Z,3.13
2023-05-17T17:24:54.990Z,3.10
2023-05-17T17:27:57.835Z,3.30
2023-05-17T17:31:00.687Z,3.20
2023-05-17T17:34:03.616Z,3.40
2023-05-17T17:37:07.912Z,2.57
2023-05-17T17:40:12.591Z,2.43
2023-05-17T17:43:15.534Z,2.40
2023-05-17T17:46:18.412Z,2.80
2023-05-17T17:49:21.328Z,2.67
2023-05-17T17:52:25.715Z,2.90
2023-05-17T17:55:28.705Z,2.30
2023-05-17T17:58:31.587Z,2.30
2023-05-17T18:01:37.376Z,2.37
2023-05-17T18:04:40.572Z,3.07
2023-05-17T18:07:45.822Z,2.00
2023-05-17T18:10:48.672Z,2.30
2023-05-17T18:13:51.638Z,3.10
2023-05-17T18:16:54.481Z,2.73
2023-05-17T18:19:57.271Z,3.03
2023-05-17T18:23:01.404Z,2.70
2023-05-17T18:26:04.221Z,2.47
2023-05-17T18:29:07.031Z,2.93
2023-05-17T18:32:11.013Z,2.60
2023-05-17T18:35:13.883Z,3.23
2023-05-17T18:38:18.093Z,2.27
2023-05-17T18:41:20.977Z,2.93
2023-05-17T18:44:23.821Z,3.00
2023-05-17T18:47:27.809Z,2.37
2023-05-17T18:50:31.193Z,2.47
2023-05-17T18:53:35.981Z,2.30
2023-05-17T18:56:38.821Z,3.17
2023-05-17T18:59:41.768Z,3.13
2023-05-17T19:02:44.622Z,2.33
2023-05-17T19:05:47.886Z,2.60
2023-05-17T19:08:52.988Z,2.83
2023-05-17T19:11:56.268Z,3.43
2023-05-17T19:14:59.493Z,2.80
2023-05-17T19:18:02.777Z,3.00
2023-05-17T19:21:06.666Z,2.90
2023-05-17T19:24:11.410Z,3.00
2023-05-17T19:27:19.384Z,2.80
2023-05-17T19:30:22.738Z,3.03
2023-05-17T19:33:25.962Z,2.90
2023-05-17T19:36:29.212Z,5.13
2023-05-17T19:39:33.814Z,4.07
2023-05-17T19:42:37.076Z,4.20
2023-05-17T19:45:42.227Z,4.17
2023-05-17T19:48:46.732Z,3.37
2023-05-17T19:51:50.152Z,3.83
2023-05-17T19:54:54.749Z,3.17
2023-05-17T19:57:58.320Z,3.87
2023-05-17T20:01:01.585Z,2.77
2023-05-17T20:04:04.841Z,3.83
2023-05-17T20:07:08.292Z,3.53
2023-05-17T20:10:13.064Z,3.30
2023-05-17T20:13:16.409Z,3.07
2023-05-17T20:16:19.737Z,2.77
2023-05-17T20:19:23.202Z,3.37
2023-05-17T20:22:26.902Z,2.77
2023-05-17T20:25:31.798Z,3.43
2023-05-17T20:28:35.049Z,3.53
2023-05-17T20:31:38.578Z,3.80
2023-05-17T20:34:41.894Z,3.77
2023-05-17T20:37:45.150Z,3.97
2023-05-17T20:40:51.865Z,3.77
2023-05-17T20:43:55.191Z,4.10
2023-05-17T20:46:58.457Z,3.70
2023-05-17T20:50:01.797Z,3.93
2023-05-17T20:53:05.271Z,3.23
2023-05-17T20:56:09.483Z,3.20
2023-05-17T20:59:12.668Z,3.70
2023-05-17T21:02:15.951Z,4.47
2023-05-17T21:05:18.861Z,3.87
2023-05-17T21:08:21.719Z,4.83
2023-05-17T21:11:26.129Z,4.23
2023-05-17T21:14:29.350Z,4.77
2023-05-17T21:17:32.198Z,3.60
2023-05-17T21:20:35.025Z,4.50
2023-05-17T21:23:37.942Z,4.97
2023-05-17T21:26:42.337Z,3.37
2023-05-17T21:29:45.179Z,5.00
2023-05-17T21:32:48.439Z,4.93
2023-05-17T21:35:51.402Z,4.07
2023-05-17T21:38:54.206Z,5.63
2023-05-17T21:41:58.401Z,4.80
2023-05-17T21:45:01.305Z,5.93
2023-05-17T21:48:04.727Z,6.00
2023-05-17T21:51:07.639Z,5.93
2023-05-17T21:54:10.603Z,5.67
2023-05-17T21:57:14.833Z,4.60
2023-05-17T22:00:20.079Z,4.53
2023-05-17T22:03:23.096Z,5.23
2023-05-17T22:06:27.493Z,4.37
2023-05-17T22:09:30.381Z,5.37
2023-05-17T22:12:35.559Z,4.93
2023-05-17T22:15:38.449Z,5.00
2023-05-17T22:18:41.824Z,5.30
2023-05-17T22:21:44.661Z,4.93
2023-05-17T22:24:47.485Z,6.03
2023-05-17T22:27:52.325Z,7.50
2023-05-17T22:30:55.159Z,7.73
2023-05-17T22:33:58.469Z,6.67
2023-05-17T22:37:01.440Z,6.17
2023-05-17T22:40:06.347Z,6.30
2023-05-17T22:43:10.773Z,7.47
2023-05-17T22:46:13.658Z,10.80
2023-05-17T22:49:16.898Z,11.10
2023-05-17T22:52:19.788Z,10.17
2023-05-17T22:55:24.133Z,9.47
2023-05-17T22:58:28.388Z,8.47
2023-05-17T23:01:31.307Z,6.27
2023-05-17T23:04:34.268Z,6.47
2023-05-17T23:07:38.323Z,5.97
2023-05-17T23:10:41.304Z,5.07
2023-05-17T23:13:45.476Z,6.10
2023-05-17T23:16:48.375Z,5.17
2023-05-17T23:19:51.843Z,5.03
2023-05-17T23:22:54.653Z,5.80
2023-05-17T23:25:57.487Z,5.27
2023-05-17T23:29:05.329Z,4.33
2023-05-17T23:32:08.655Z,5.23
2023-05-17T23:35:11.527Z,4.73
2023-05-17T23:38:14.338Z,5.73
2023-05-17T23:41:18.325Z,4.97
2023-05-17T23:44:22.488Z,5.17
2023-05-17T23:47:25.531Z,4.87
2023-05-17T23:50:28.460Z,5.07
2023-05-17T23:53:31.302Z,4.83
2023-05-17T23:56:34.116Z,4.43
2023-05-17T23:59:38.331Z,4.80
